createdAt,value
2023-05-14T00:02:08.937Z,2.33
2023-05-14T00:04:37.578Z,2.15
2023-05-14T00:07:06.466Z,1.90
2023-05-14T00:09:35.080Z,2.30
2023-05-14T00:12:03.717Z,2.20
2023-05-14T00:14:32.333Z,2.30
2023-05-14T00:17:01.168Z,2.40
2023-05-14T00:19:29.692Z,2.60
2023-05-14T00:21:59.332Z,2.53
2023-05-14T00:24:27.664Z,2.45
2023-05-14T00:26:56.262Z,2.90
2023-05-14T00:29:24.856Z,2.42
2023-05-14T00:31:53.534Z,2.50
2023-05-14T00:34:22.383Z,2.45
2023-05-14T00:36:53.211Z,2.50
2023-05-14T00:39:21.821Z,2.50
2023-05-14T00:41:50.058Z,2.33
2023-05-14T00:44:18.647Z,3.10
2023-05-14T00:46:47.185Z,2.65
2023-05-14T00:49:16.257Z,3.03
2023-05-14T00:51:47.885Z,2.60
2023-05-14T00:56:49.566Z,2.63
2023-05-14T00:59:18.522Z,2.70
2023-05-14T01:01:47.112Z,2.72
2023-05-14T01:04:15.668Z,3.03
2023-05-14T01:07:02.544Z,2.50
2023-05-14T01:09:59.001Z,2.88
2023-05-14T01:12:48.640Z,2.90
2023-05-14T01:15:28.268Z,2.90
2023-05-14T01:18:06.172Z,3.10
2023-05-14T01:20:34.473Z,3.00
2023-05-14T01:23:05.856Z,2.70
2023-05-14T01:25:35.407Z,2.97
2023-05-14T01:28:21.450Z,2.90
2023-05-14T01:31:05.264Z,3.00
2023-05-14T01:33:36.808Z,3.17
2023-05-14T01:36:07.394Z,3.33
2023-05-14T01:38:37.413Z,3.38
2023-05-14T01:41:06.408Z,3.05
2023-05-14T01:43:37.177Z,3.38
2023-05-14T01:46:06.259Z,3.35
2023-05-14T01:48:34.950Z,3.35
2023-05-14T01:51:04.006Z,3.20
2023-05-14T01:53:32.578Z,3.47
2023-05-14T01:56:01.383Z,3.38
2023-05-14T01:58:30.015Z,3.22
2023-05-14T02:00:58.868Z,3.00
2023-05-14T02:03:27.734Z,3.05
2023-05-14T02:05:56.468Z,2.90
2023-05-14T02:08:24.775Z,3.25
2023-05-14T02:10:53.404Z,3.45
2023-05-14T02:13:21.760Z,3.45
2023-05-14T02:15:51.432Z,3.30
2023-05-14T02:18:20.320Z,3.45
2023-05-14T02:20:48.691Z,3.63
2023-05-14T02:23:17.313Z,3.53
2023-05-14T02:25:46.286Z,3.45
2023-05-14T02:28:14.880Z,3.50
2023-05-14T02:30:44.418Z,3.40
2023-05-14T02:33:12.959Z,3.75
2023-05-14T02:35:41.600Z,3.85
2023-05-14T02:38:10.810Z,4.13
2023-05-14T02:40:39.688Z,4.13
2023-05-14T02:43:08.418Z,4.10
2023-05-14T02:45:37.516Z,4.50
2023-05-14T02:48:06.199Z,4.13
2023-05-14T02:50:34.889Z,4.18
2023-05-14T02:53:03.588Z,4.13
2023-05-14T02:55:32.475Z,4.50
2023-05-14T02:58:00.887Z,4.72
2023-05-14T03:00:29.091Z,5.20
2023-05-14T03:02:58.372Z,6.07
2023-05-14T03:05:27.593Z,5.57
2023-05-14T03:07:56.270Z,6.05
2023-05-14T03:10:25.212Z,5.47
2023-05-14T03:12:55.080Z,5.63
2023-05-14T03:15:23.723Z,5.65
2023-05-14T03:17:52.376Z,5.90
2023-05-14T03:20:21.312Z,6.57
2023-05-14T03:22:50.158Z,6.22
2023-05-14T03:25:18.928Z,6.65
2023-05-14T03:27:47.546Z,7.10
2023-05-14T03:30:17.068Z,6.43
2023-05-14T03:32:46.251Z,6.72
2023-05-14T03:35:15.830Z,6.72
2023-05-14T03:37:44.366Z,6.93
2023-05-14T03:40:12.855Z,7.38
2023-05-14T03:42:41.144Z,7.45
2023-05-14T03:45:10.283Z,7.32
2023-05-14T03:47:39.003Z,7.30
2023-05-14T03:50:08.811Z,7.47
2023-05-14T03:52:37.573Z,7.32
2023-05-14T03:55:06.240Z,8.02
2023-05-14T03:57:34.790Z,7.22
2023-05-14T04:00:03.758Z,7.25
2023-05-14T04:02:32.825Z,7.47
2023-05-14T04:05:01.730Z,7.50
2023-05-14T04:07:29.633Z,7.75
2023-05-14T04:09:58.523Z,7.93
2023-05-14T04:12:28.124Z,8.02
2023-05-14T04:14:58.697Z,7.82
2023-05-14T04:17:27.577Z,8.23
2023-05-14T04:19:56.193Z,7.55
2023-05-14T04:22:24.935Z,7.88
2023-05-14T04:24:54.279Z,7.78
2023-05-14T04:27:23.170Z,7.18
2023-05-14T04:29:52.265Z,7.47
2023-05-14T04:32:21.097Z,7.68
2023-05-14T04:34:49.748Z,7.30
2023-05-14T04:37:18.070Z,7.00
2023-05-14T04:39:46.661Z,7.30
2023-05-14T04:42:15.231Z,7.03
2023-05-14T04:44:43.801Z,6.97
2023-05-14T04:47:12.629Z,7.60
2023-05-14T04:49:41.628Z,7.03
2023-05-14T04:52:10.485Z,6.93
2023-05-14T04:54:39.107Z,6.75
2023-05-14T04:57:07.892Z,6.28
2023-05-14T04:59:37.002Z,7.10
2023-05-14T05:02:06.051Z,6.55
2023-05-14T05:04:34.680Z,6.60
2023-05-14T05:07:03.440Z,6.63
2023-05-14T05:09:32.489Z,6.55
2023-05-14T05:12:02.899Z,6.28
2023-05-14T05:14:31.322Z,6.20
2023-05-14T05:16:59.869Z,6.15
2023-05-14T05:19:42.482Z,6.13
2023-05-14T05:22:12.811Z,6.18
2023-05-14T05:24:41.011Z,5.80
2023-05-14T05:27:09.188Z,6.20
2023-05-14T05:29:38.055Z,6.00
2023-05-14T05:32:07.257Z,6.00
2023-05-14T05:34:35.983Z,5.63
2023-05-14T05:37:04.358Z,5.55
2023-05-14T05:39:36.055Z,5.13
2023-05-14T05:42:05.064Z,6.03
2023-05-14T05:44:33.791Z,5.22
2023-05-14T05:47:02.634Z,5.13
2023-05-14T05:49:31.348Z,5.15
2023-05-14T05:52:00.920Z,5.22
2023-05-14T05:54:29.436Z,4.70
2023-05-14T05:56:58.173Z,4.88
2023-05-14T05:59:26.898Z,5.25
2023-05-14T06:01:58.523Z,4.72
2023-05-14T06:04:27.265Z,5.45
2023-05-14T06:06:55.892Z,4.97
2023-05-14T06:09:24.247Z,5.07
2023-05-14T06:11:52.844Z,5.38
2023-05-14T06:14:21.442Z,5.03
2023-05-14T06:16:50.227Z,4.80
2023-05-14T06:19:18.846Z,4.80
2023-05-14T06:21:47.112Z,4.97
2023-05-14T06:24:15.748Z,4.43
2023-05-14T06:26:44.356Z,4.72
2023-05-14T06:29:12.870Z,4.70
2023-05-14T06:31:41.137Z,4.65
2023-05-14T06:34:10.522Z,4.38
2023-05-14T06:36:39.107Z,4.50
2023-05-14T06:39:07.991Z,4.45
2023-05-14T06:41:35.951Z,4.20
2023-05-14T06:44:05.054Z,4.32
2023-05-14T06:46:33.160Z,4.32
2023-05-14T06:49:01.818Z,4.28
2023-05-14T06:51:30.226Z,4.40
2023-05-14T06:53:58.782Z,4.40
2023-05-14T06:56:27.391Z,3.90
2023-05-14T06:58:56.016Z,4.18
2023-05-14T07:01:24.934Z,3.83
2023-05-14T07:03:53.559Z,4.20
2023-05-14T07:06:22.827Z,4.30
2023-05-14T07:08:51.510Z,4.38
2023-05-14T07:11:20.146Z,4.25
2023-05-14T07:13:48.704Z,4.05
2023-05-14T07:16:17.298Z,4.82
2023-05-14T07:18:46.577Z,4.30
2023-05-14T07:21:15.154Z,3.85
2023-05-14T07:23:43.731Z,4.15
2023-05-14T07:26:12.545Z,4.65
2023-05-14T07:28:41.131Z,4.20
2023-05-14T07:31:10.324Z,4.22
2023-05-14T07:33:40.183Z,4.70
2023-05-14T07:36:10.077Z,4.32
2023-05-14T07:38:38.750Z,4.28
2023-05-14T07:41:07.442Z,4.30
2023-05-14T07:43:36.059Z,4.22
2023-05-14T07:46:04.358Z,4.07
2023-05-14T07:48:32.593Z,4.60
2023-05-14T07:51:01.785Z,4.28
2023-05-14T07:53:30.803Z,4.65
2023-05-14T07:56:01.386Z,4.60
2023-05-14T07:58:30.299Z,4.68
2023-05-14T08:00:58.932Z,4.78
2023-05-14T08:03:28.429Z,4.57
2023-05-14T08:05:58.720Z,4.57
2023-05-14T08:08:28.776Z,4.72
2023-05-14T08:10:57.427Z,4.80
2023-05-14T08:13:25.381Z,4.43
2023-05-14T08:15:54.115Z,4.88
2023-05-14T08:18:22.845Z,4.50
2023-05-14T08:20:51.447Z,4.53
2023-05-14T08:23:20.081Z,4.50
2023-05-14T08:25:48.721Z,4.63
2023-05-14T08:28:17.392Z,4.60
2023-05-14T08:30:45.751Z,4.90
2023-05-14T08:33:15.289Z,4.13
2023-05-14T08:35:43.928Z,4.47
2023-05-14T08:38:12.846Z,4.63
2023-05-14T08:40:41.629Z,4.63
2023-05-14T08:43:13.230Z,5.05
2023-05-14T08:45:42.760Z,4.60
2023-05-14T08:48:16.519Z,5.05
2023-05-14T08:50:45.896Z,4.72
2023-05-14T08:53:14.626Z,5.43
2023-05-14T08:55:44.509Z,5.53
2023-05-14T08:58:13.257Z,5.00
2023-05-14T09:00:43.654Z,5.47
2023-05-14T09:03:13.909Z,4.95
2023-05-14T09:05:43.042Z,5.32
2023-05-14T09:08:11.668Z,5.30
2023-05-14T09:10:41.702Z,5.55
2023-05-14T09:13:11.254Z,5.50
2023-05-14T09:15:42.770Z,4.80
2023-05-14T09:18:12.933Z,5.70
2023-05-14T09:20:41.640Z,5.45
2023-05-14T09:23:10.111Z,5.88
2023-05-14T09:25:38.677Z,5.55
2023-05-14T09:28:13.386Z,5.32
2023-05-14T09:30:42.052Z,5.35
2023-05-14T09:33:11.385Z,5.28
2023-05-14T09:35:42.712Z,5.75
2023-05-14T09:38:10.704Z,5.35
2023-05-14T09:40:39.711Z,5.30
2023-05-14T09:43:07.812Z,5.70
2023-05-14T09:45:36.567Z,4.88
2023-05-14T09:48:05.121Z,4.90
2023-05-14T09:50:33.859Z,5.57
2023-05-14T09:53:02.734Z,5.65
2023-05-14T09:55:32.702Z,5.45
2023-05-14T09:58:01.245Z,5.28
2023-05-14T10:00:30.660Z,5.50
2023-05-14T10:03:00.779Z,5.63
2023-05-14T10:05:30.428Z,4.70
2023-05-14T10:08:03.472Z,5.07
2023-05-14T10:13:05.867Z,5.15
2023-05-14T10:16:08.382Z,4.93
2023-05-14T10:18:47.236Z,5.13
2023-05-14T10:21:17.873Z,5.18
2023-05-14T10:23:47.469Z,5.50
2023-05-14T10:26:16.837Z,5.50
2023-05-14T10:28:46.272Z,4.75
2023-05-14T10:31:14.925Z,5.32
2023-05-14T10:33:51.765Z,5.50
2023-05-14T10:36:20.573Z,5.07
2023-05-14T10:38:56.793Z,4.90
2023-05-14T10:41:26.561Z,5.13
2023-05-14T10:43:55.524Z,5.30
2023-05-14T10:46:24.184Z,5.30
2023-05-14T10:48:52.812Z,5.50
2023-05-14T10:51:23.965Z,5.53
2023-05-14T10:53:54.144Z,5.72
2023-05-14T10:56:23.708Z,5.50
2023-05-14T10:58:52.584Z,5.90
2023-05-14T11:01:26.907Z,5.50
2023-05-14T11:03:57.247Z,6.03
2023-05-14T11:06:28.981Z,6.18
2023-05-14T11:08:57.705Z,5.75
2023-05-14T11:11:27.652Z,6.57
2023-05-14T11:13:56.902Z,6.15
2023-05-14T11:16:30.550Z,6.50
2023-05-14T11:19:06.893Z,6.28
2023-05-14T11:21:35.609Z,5.72
2023-05-14T11:24:06.374Z,6.18
2023-05-14T11:26:35.840Z,5.97
2023-05-14T11:29:04.515Z,6.18
2023-05-14T11:31:33.235Z,6.70
2023-05-14T11:34:02.666Z,6.78
2023-05-14T11:36:31.268Z,6.32
2023-05-14T11:38:59.841Z,6.00
2023-05-14T11:41:29.541Z,6.65
2023-05-14T11:43:57.895Z,6.68
2023-05-14T11:46:27.512Z,6.28
2023-05-14T11:48:57.139Z,6.25
2023-05-14T11:51:25.523Z,6.70
2023-05-14T11:53:55.908Z,6.78
2023-05-14T11:56:24.492Z,5.88
2023-05-14T11:59:00.160Z,6.85
2023-05-14T12:01:30.250Z,6.30
2023-05-14T12:03:58.977Z,6.28
2023-05-14T12:06:35.461Z,6.63
2023-05-14T12:09:07.215Z,6.88
2023-05-14T12:11:38.280Z,6.28
2023-05-14T12:14:16.499Z,6.50
2023-05-14T12:16:48.574Z,6.43
2023-05-14T12:19:19.588Z,6.88
2023-05-14T12:21:52.505Z,6.55
2023-05-14T12:24:21.481Z,6.10
2023-05-14T12:26:51.391Z,6.80
2023-05-14T12:29:19.924Z,6.28
2023-05-14T12:31:50.083Z,6.65
2023-05-14T12:34:19.109Z,6.50
2023-05-14T12:36:47.713Z,6.47
2023-05-14T12:39:16.387Z,6.40
2023-05-14T12:41:45.356Z,6.47
2023-05-14T12:44:13.708Z,6.53
2023-05-14T12:46:42.408Z,6.70
2023-05-14T12:49:10.959Z,6.35
2023-05-14T12:51:39.512Z,6.43
2023-05-14T12:54:08.059Z,6.30
2023-05-14T12:56:39.200Z,6.28
2023-05-14T12:59:07.977Z,6.70
2023-05-14T13:01:36.886Z,6.38
2023-05-14T13:04:06.912Z,6.22
2023-05-14T13:06:35.538Z,6.05
2023-05-14T13:09:04.734Z,6.70
2023-05-14T13:11:33.560Z,6.50
2023-05-14T13:14:03.286Z,5.85
2023-05-14T13:16:33.044Z,6.05
2023-05-14T13:19:01.962Z,6.20
2023-05-14T13:21:31.559Z,6.10
2023-05-14T13:24:00.189Z,6.30
2023-05-14T13:26:29.695Z,6.30
2023-05-14T13:28:57.856Z,6.05
2023-05-14T13:31:25.982Z,5.82
2023-05-14T13:33:54.815Z,5.32
2023-05-14T13:36:23.278Z,5.47
2023-05-14T13:38:51.892Z,5.82
2023-05-14T13:41:20.503Z,5.70
2023-05-14T13:43:49.188Z,6.15
2023-05-14T13:46:17.791Z,5.55
2023-05-14T13:48:46.400Z,5.75
2023-05-14T13:51:15.116Z,5.38
2023-05-14T13:53:44.591Z,5.32
2023-05-14T13:56:13.103Z,5.55
2023-05-14T13:58:41.867Z,5.63
2023-05-14T14:01:10.559Z,5.65
2023-05-14T14:03:39.342Z,4.60
2023-05-14T14:06:08.257Z,4.57
2023-05-14T14:08:37.278Z,4.78
2023-05-14T14:11:06.166Z,4.82
2023-05-14T14:13:34.409Z,5.00
2023-05-14T14:16:04.535Z,4.80
2023-05-14T14:18:33.224Z,4.75
2023-05-14T14:21:01.822Z,5.50
2023-05-14T14:23:30.240Z,4.80
2023-05-14T14:25:59.443Z,4.93
2023-05-14T14:28:28.137Z,5.00
2023-05-14T14:30:56.796Z,5.25
2023-05-14T14:33:25.340Z,4.55
2023-05-14T14:35:53.952Z,5.20
2023-05-14T14:38:22.630Z,4.78
2023-05-14T14:40:50.830Z,4.82
2023-05-14T14:43:20.351Z,5.00
2023-05-14T14:45:49.844Z,5.20
2023-05-14T14:48:27.575Z,4.95
2023-05-14T14:50:57.214Z,5.38
2023-05-14T14:53:26.369Z,5.10
2023-05-14T14:55:55.156Z,5.40
2023-05-14T14:58:24.329Z,5.43
2023-05-14T15:00:55.238Z,5.22
2023-05-14T15:03:24.482Z,5.07
2023-05-14T15:05:54.647Z,5.35
2023-05-14T15:08:27.731Z,5.65
2023-05-14T15:10:59.407Z,4.60
2023-05-14T15:13:27.777Z,4.70
2023-05-14T15:15:56.380Z,4.90
2023-05-14T15:18:25.083Z,5.30
2023-05-14T15:20:54.237Z,5.05
2023-05-14T15:23:23.687Z,5.00
2023-05-14T15:25:52.625Z,4.60
2023-05-14T15:28:21.315Z,4.93
2023-05-14T15:30:50.260Z,4.97
2023-05-14T15:33:20.613Z,5.22
2023-05-14T15:35:49.211Z,5.07
2023-05-14T15:38:17.791Z,5.20
2023-05-14T15:40:46.552Z,4.72
2023-05-14T15:43:15.192Z,4.90
2023-05-14T15:45:47.493Z,4.72
2023-05-14T15:48:16.240Z,4.45
2023-05-14T15:50:45.466Z,5.03
2023-05-14T15:53:14.727Z,4.55
2023-05-14T15:55:42.970Z,4.68
2023-05-14T15:58:11.596Z,5.50
2023-05-14T16:00:40.911Z,4.80
2023-05-14T16:03:09.528Z,4.68
2023-05-14T16:05:38.393Z,4.68
2023-05-14T16:08:07.649Z,4.97
2023-05-14T16:10:36.318Z,4.75
2023-05-14T16:13:05.027Z,4.85
2023-05-14T16:15:33.694Z,4.93
2023-05-14T16:18:02.615Z,5.07
2023-05-14T16:20:31.209Z,4.80
2023-05-14T16:22:59.765Z,4.80
2023-05-14T16:25:28.348Z,4.88
2023-05-14T16:27:56.984Z,5.15
2023-05-14T16:30:25.461Z,5.15
2023-05-14T16:32:57.152Z,4.78
2023-05-14T16:35:25.833Z,5.53
2023-05-14T16:37:54.527Z,5.50
2023-05-14T16:40:27.228Z,4.88
2023-05-14T16:42:55.900Z,5.55
2023-05-14T16:45:24.276Z,5.68
2023-05-14T16:47:53.084Z,4.80
2023-05-14T16:50:22.238Z,5.03
2023-05-14T16:52:50.812Z,5.10
2023-05-14T16:55:21.095Z,5.22
2023-05-14T16:57:49.872Z,4.65
2023-05-14T17:00:19.255Z,5.45
2023-05-14T17:02:51.153Z,5.28
2023-05-14T17:05:19.792Z,5.43
2023-05-14T17:07:49.326Z,5.35
2023-05-14T17:10:18.406Z,5.55
2023-05-14T17:12:48.120Z,5.75
2023-05-14T17:15:16.708Z,5.35
2023-05-14T17:17:45.016Z,5.70
2023-05-14T17:20:15.930Z,5.68
2023-05-14T17:22:45.680Z,5.47
2023-05-14T17:25:14.440Z,5.57
2023-05-14T17:27:42.413Z,5.47
2023-05-14T17:30:11.482Z,5.15
2023-05-14T17:32:40.137Z,5.60
2023-05-14T17:35:11.183Z,5.93
2023-05-14T17:37:39.794Z,5.30
2023-05-14T17:40:08.970Z,5.40
2023-05-14T17:42:37.605Z,5.30
2023-05-14T17:45:06.707Z,5.38
2023-05-14T17:47:35.389Z,5.38
2023-05-14T17:50:04.048Z,5.38
2023-05-14T17:52:32.413Z,6.38
2023-05-14T17:55:00.365Z,5.55
2023-05-14T17:57:29.088Z,5.90
2023-05-14T17:59:57.842Z,5.40
2023-05-14T18:02:26.642Z,5.57
2023-05-14T18:04:55.566Z,6.00
2023-05-14T18:07:24.518Z,5.70
2023-05-14T18:09:53.143Z,5.57
2023-05-14T18:12:21.395Z,5.50
2023-05-14T18:14:50.105Z,5.60
2023-05-14T18:17:18.974Z,5.93
2023-05-14T18:19:47.573Z,5.90
2023-05-14T18:22:16.804Z,6.32
2023-05-14T18:24:45.459Z,6.10
2023-05-14T18:27:14.093Z,6.32
2023-05-14T18:29:43.449Z,6.80
2023-05-14T18:32:12.123Z,6.22
2023-05-14T18:34:40.716Z,6.20
2023-05-14T18:37:10.075Z,6.45
2023-05-14T18:39:38.841Z,6.35
2023-05-14T18:42:07.708Z,6.90
2023-05-14T18:44:36.345Z,6.60
2023-05-14T18:47:05.140Z,6.63
2023-05-14T18:49:33.293Z,6.55
2023-05-14T18:52:01.831Z,6.30
2023-05-14T18:54:30.339Z,6.57
2023-05-14T18:56:59.122Z,6.55
2023-05-14T18:59:28.010Z,7.30
2023-05-14T19:01:56.744Z,6.75
2023-05-14T19:04:25.443Z,7.32
2023-05-14T19:06:54.254Z,7.07
2023-05-14T19:09:24.047Z,7.20
2023-05-14T19:11:53.664Z,7.05
2023-05-14T19:14:22.388Z,7.32
2023-05-14T19:16:50.863Z,7.60
2023-05-14T19:19:19.269Z,7.53
2023-05-14T19:21:48.876Z,7.70
2023-05-14T19:24:17.082Z,7.38
2023-05-14T19:26:45.950Z,7.43
2023-05-14T19:29:14.715Z,7.65
2023-05-14T19:31:43.430Z,7.43
2023-05-14T19:34:12.116Z,7.68
2023-05-14T19:36:40.861Z,7.13
2023-05-14T19:39:08.793Z,6.53
2023-05-14T19:41:37.372Z,6.60
2023-05-14T19:44:06.024Z,6.40
2023-05-14T19:46:34.276Z,6.20
2023-05-14T19:49:02.929Z,6.65
2023-05-14T19:51:30.902Z,6.82
2023-05-14T19:53:59.539Z,7.18
2023-05-14T19:56:28.878Z,6.72
2023-05-14T19:58:57.470Z,6.57
2023-05-14T20:01:25.846Z,6.45
2023-05-14T20:03:54.031Z,7.03
2023-05-14T20:06:22.429Z,6.43
2023-05-14T20:08:52.560Z,7.05
2023-05-14T20:11:21.225Z,6.60
2023-05-14T20:13:50.791Z,6.50
2023-05-14T20:16:19.963Z,7.28
2023-05-14T20:18:48.647Z,6.30
2023-05-14T20:21:16.911Z,6.60
2023-05-14T20:23:45.205Z,5.97
2023-05-14T20:26:13.853Z,6.63
2023-05-14T20:28:44.698Z,6.88
2023-05-14T20:31:12.953Z,6.78
2023-05-14T20:33:41.584Z,6.30
2023-05-14T20:36:10.140Z,6.55
2023-05-14T20:38:38.793Z,6.30
2023-05-14T20:41:07.404Z,6.07
2023-05-14T20:43:35.991Z,6.22
2023-05-14T20:46:06.840Z,7.03
2023-05-14T20:48:34.883Z,5.57
2023-05-14T20:51:06.190Z,5.85
2023-05-14T20:53:35.399Z,6.00
2023-05-14T20:56:04.010Z,5.82
2023-05-14T20:58:32.538Z,5.60
2023-05-14T21:01:01.186Z,5.47
2023-05-14T21:03:29.964Z,4.80
2023-05-14T21:05:59.209Z,4.57
2023-05-14T21:08:28.948Z,5.25
2023-05-14T21:10:57.280Z,5.28
2023-05-14T21:13:25.323Z,4.60
2023-05-14T21:15:54.188Z,4.80
2023-05-14T21:18:22.885Z,4.95
2023-05-14T21:20:51.082Z,4.38
2023-05-14T21:23:20.944Z,4.78
2023-05-14T21:25:49.104Z,4.63
2023-05-14T21:28:17.727Z,4.60
2023-05-14T21:30:46.270Z,4.80
2023-05-14T21:33:14.845Z,4.50
2023-05-14T21:35:44.260Z,4.07
2023-05-14T21:38:13.341Z,3.95
2023-05-14T21:40:41.543Z,5.18
2023-05-14T21:43:10.172Z,4.40
2023-05-14T21:45:38.851Z,5.15
2023-05-14T21:48:08.297Z,4.40
2023-05-14T21:50:36.960Z,4.47
2023-05-14T21:53:05.629Z,4.70
2023-05-14T21:55:33.661Z,4.95
2023-05-14T21:58:02.297Z,4.70
2023-05-14T22:00:31.219Z,5.00
2023-05-14T22:03:00.455Z,4.40
2023-05-14T22:05:29.280Z,4.63
2023-05-14T22:07:58.372Z,5.60
2023-05-14T22:10:27.007Z,4.88
2023-05-14T22:12:55.693Z,4.88
2023-05-14T22:15:24.262Z,5.10
2023-05-14T22:17:53.058Z,4.95
2023-05-14T22:20:21.662Z,5.18
2023-05-14T22:22:51.250Z,4.78
2023-05-14T22:25:19.853Z,4.72
2023-05-14T22:27:48.433Z,5.32
2023-05-14T22:30:17.092Z,5.15
2023-05-14T22:32:45.754Z,5.18
2023-05-14T22:35:15.337Z,6.10
2023-05-14T22:37:43.948Z,5.00
2023-05-14T22:40:14.810Z,5.80
2023-05-14T22:42:43.497Z,5.40
2023-05-14T22:45:12.448Z,5.28
2023-05-14T22:47:41.030Z,5.10
2023-05-14T22:50:13.052Z,5.32
2023-05-14T22:52:42.552Z,5.95
2023-05-14T22:55:11.252Z,5.20
2023-05-14T22:57:40.423Z,4.65
2023-05-14T23:00:09.717Z,4.93
2023-05-14T23:02:38.479Z,4.50
2023-05-14T23:05:08.184Z,4.32
2023-05-14T23:07:37.192Z,4.53
2023-05-14T23:10:08.949Z,4.60
2023-05-14T23:12:37.713Z,4.80
2023-05-14T23:15:07.776Z,4.53
2023-05-14T23:17:36.401Z,4.43
2023-05-14T23:20:06.993Z,4.63
2023-05-14T23:22:35.618Z,4.85
2023-05-14T23:25:03.935Z,5.63
2023-05-14T23:27:32.757Z,4.70
2023-05-14T23:30:01.331Z,4.20
2023-05-14T23:32:29.990Z,4.60
2023-05-14T23:34:58.666Z,4.68
2023-05-14T23:37:27.260Z,4.68
2023-05-14T23:39:55.906Z,4.35
2023-05-14T23:42:24.639Z,4.40
2023-05-14T23:44:53.224Z,4.60
2023-05-14T23:47:22.188Z,4.40
2023-05-14T23:49:50.792Z,4.90
2023-05-14T23:52:19.323Z,5.40
2023-05-14T23:54:47.942Z,4.50
2023-05-14T23:57:16.701Z,4.63
2023-05-14T23:59:45.345Z,4.95
